Hauptseite
METAR-TAF:

METAR-TAF

Flughäfen :

Tiree, Schottland

Tiree Airport

Breite: 56-30N, Länge: 006-53W, Höhe: 12 m

Beobachtung

Neuester Wetterbericht von vor 29 Minuten, um 00:50 UTC
Wind 19 kt aus Südost
Temperatur 4°C
Luftfeuchtigkeit 75%
Luftdruck 1026 hPa
Sichtweite 10 km oder mehr

METAR: EGPU 250050Z AUTO 13019KT 9999 NCD 04/M00 Q1026

Zeit: 01:19 (01:19 UTC)

Prognose

Neuester Wetterbericht von vor 11 Stunden und 21 Minuten, um 13:58 UTC
Gültige Prognose vom 24 um 15 UTC bis 24 um 19 UTC
Wind 22 kt aus Süd/Südost
Sichtweite 10 km oder mehr
Aufgelockert bewölkt in der Höhe von 2400 ft
Zeitweise
vom 24 um 15 UTC bis 24 um 17 UTC
Wind 25 kt aus Süd/Südost, Böen bis zu 35 kt

TAF: EGPU 241358Z 2415/2419 15022KT 9999 SCT024 TEMPO 2415/2417 15025G35KT

Wetterbeobachtungen und Prognosen von mehr als 4000 Flughäfen (METAR und TAF Bericht).

Die verfügbaren Stationen werden durch gelbe und rote Markierungen auf der Karte dargestellt.

Führen Sie die Maus auf sie, um den Namen der Station zu sehen.

Darauf klicken, um die Beobachtung von Wetterbeobachtungen und Prognosen zu sehen.

Um die Karte zu ändern : klicken Sie auf den grünen Tasten mit einem schwarzen Kreuz Zum Vergrößern, auf den grünen Button mit einem Gedankenstrich zu verkleinern, oder auf die grünen Pfeile für benachbarte Karten.


METAR-TAF: